createdAt,value
2018-12-06T00:01:43.626Z,20.30
2018-12-06T00:04:12.130Z,21.15
2018-12-06T00:06:40.389Z,20.30
2018-12-06T00:09:08.722Z,21.55
2018-12-06T00:11:36.991Z,20.57
2018-12-06T00:14:05.319Z,21.15
2018-12-06T00:16:33.745Z,21.70
2018-12-06T00:19:10.575Z,21.82
2018-12-06T00:21:43.906Z,20.10
2018-12-06T00:24:12.768Z,20.97
2018-12-06T00:26:41.084Z,21.55
2018-12-06T00:29:09.327Z,20.50
2018-12-06T00:31:37.608Z,20.95
2018-12-06T00:34:05.985Z,21.20
2018-12-06T00:36:34.475Z,20.52
2018-12-06T00:39:03.390Z,21.30
2018-12-06T00:41:31.523Z,20.40
2018-12-06T00:43:59.897Z,20.12
2018-12-06T00:46:28.210Z,20.90
2018-12-06T00:48:56.451Z,20.80
2018-12-06T00:51:24.871Z,21.37
2018-12-06T00:53:53.141Z,21.55
2018-12-06T00:56:21.410Z,21.48
2018-12-06T00:58:49.855Z,23.05
2018-12-06T01:01:18.161Z,20.77
2018-12-06T01:03:46.525Z,21.30
2018-12-06T01:06:15.030Z,20.90
2018-12-06T01:08:43.300Z,21.20
2018-12-06T01:11:11.922Z,22.00
2018-12-06T01:13:40.150Z,21.02
2018-12-06T01:16:09.847Z,22.22
2018-12-06T01:18:38.191Z,20.70
2018-12-06T01:21:06.687Z,21.00
2018-12-06T01:23:35.014Z,21.77
2018-12-06T01:26:03.282Z,22.10
2018-12-06T01:28:31.575Z,21.25
2018-12-06T01:30:59.795Z,22.90
2018-12-06T01:33:28.080Z,21.48
2018-12-06T01:35:56.356Z,20.95
2018-12-06T01:38:24.678Z,22.17
2018-12-06T01:40:52.990Z,20.17
2018-12-06T01:43:21.242Z,21.45
2018-12-06T01:45:50.998Z,20.82
2018-12-06T01:48:19.498Z,22.27
2018-12-06T01:50:47.980Z,22.15
2018-12-06T01:53:16.339Z,21.30
2018-12-06T01:55:44.672Z,23.62
2018-12-06T01:58:14.315Z,22.02
2018-12-06T02:00:42.558Z,21.50
2018-12-06T02:03:10.796Z,21.30
2018-12-06T02:05:39.101Z,22.42
2018-12-06T02:08:07.403Z,21.57
2018-12-06T02:10:35.731Z,21.17
2018-12-06T02:13:04.088Z,21.65
2018-12-06T02:15:32.415Z,22.80
2018-12-06T02:18:00.690Z,21.48
2018-12-06T02:20:28.927Z,20.55
2018-12-06T02:22:57.284Z,22.58
2018-12-06T02:25:25.811Z,23.15
2018-12-06T02:27:54.202Z,21.75
2018-12-06T02:30:22.523Z,20.65
2018-12-06T02:32:50.880Z,21.77
2018-12-06T02:35:19.187Z,20.00
2018-12-06T02:37:47.706Z,22.37
2018-12-06T02:40:16.070Z,21.17
2018-12-06T02:42:44.416Z,20.55
2018-12-06T02:45:13.126Z,20.68
2018-12-06T02:47:41.508Z,19.70
2018-12-06T02:50:09.788Z,21.00
2018-12-06T02:52:38.874Z,21.27
2018-12-06T02:55:07.202Z,21.77
2018-12-06T02:57:35.426Z,20.88
2018-12-06T03:00:04.226Z,22.10
2018-12-06T03:02:32.496Z,23.57
2018-12-06T03:05:00.907Z,22.10
2018-12-06T03:07:29.145Z,20.90
2018-12-06T03:09:58.629Z,20.80
2018-12-06T03:12:26.961Z,19.95
2018-12-06T03:14:55.289Z,20.65
2018-12-06T03:17:23.513Z,21.37
2018-12-06T03:19:51.942Z,20.68
2018-12-06T03:22:20.784Z,20.35
2018-12-06T03:24:49.077Z,20.75
2018-12-06T03:27:17.431Z,19.98
2018-12-06T03:29:45.699Z,20.62
2018-12-06T03:32:14.152Z,21.40
2018-12-06T03:34:42.313Z,20.10
2018-12-06T03:37:11.598Z,19.48
2018-12-06T03:39:39.844Z,20.52
2018-12-06T03:42:08.183Z,20.20
2018-12-06T03:44:36.479Z,19.73
2018-12-06T03:47:04.956Z,20.35
2018-12-06T03:49:33.586Z,19.80
2018-12-06T03:52:01.881Z,19.48
2018-12-06T03:54:30.155Z,20.25
2018-12-06T03:56:58.494Z,20.72
2018-12-06T03:59:27.029Z,19.70
2018-12-06T04:01:55.344Z,20.12
2018-12-06T04:04:23.665Z,19.77
2018-12-06T04:06:52.454Z,19.73
2018-12-06T04:09:20.709Z,19.00
2018-12-06T04:11:49.084Z,19.70
2018-12-06T04:14:17.316Z,20.57
2018-12-06T04:16:45.624Z,20.27
2018-12-06T04:19:13.899Z,20.17
2018-12-06T04:21:42.171Z,20.25
2018-12-06T04:24:10.556Z,19.20
2018-12-06T04:26:39.023Z,20.75
2018-12-06T04:29:07.349Z,19.67
2018-12-06T04:31:37.355Z,20.40
2018-12-06T04:34:05.794Z,19.42
2018-12-06T04:36:34.423Z,20.00
2018-12-06T04:39:03.836Z,20.17
2018-12-06T04:41:32.167Z,20.62
2018-12-06T04:44:00.640Z,19.85
2018-12-06T04:46:28.954Z,20.50
2018-12-06T04:48:57.361Z,20.32
2018-12-06T04:51:25.675Z,21.55
2018-12-06T04:53:53.984Z,21.75
2018-12-06T04:56:22.367Z,20.90
2018-12-06T04:58:50.679Z,20.85
2018-12-06T05:01:19.024Z,20.95
2018-12-06T05:03:47.458Z,21.62
2018-12-06T05:06:15.783Z,21.73
2018-12-06T05:08:44.038Z,21.90
2018-12-06T05:11:12.333Z,20.77
2018-12-06T05:13:40.794Z,20.80
2018-12-06T05:16:09.081Z,21.85
2018-12-06T05:18:37.491Z,21.02
2018-12-06T05:21:05.959Z,22.50
2018-12-06T05:23:34.335Z,20.97
2018-12-06T05:26:02.805Z,21.70
2018-12-06T05:28:31.217Z,21.33
2018-12-06T05:30:59.506Z,20.75
2018-12-06T05:33:27.763Z,20.62
2018-12-06T05:35:56.221Z,21.02
2018-12-06T05:38:24.586Z,20.45
2018-12-06T05:40:52.977Z,22.55
2018-12-06T05:43:21.282Z,20.82
2018-12-06T05:45:49.563Z,20.30
2018-12-06T05:48:17.931Z,20.17
2018-12-06T05:50:46.184Z,20.80
2018-12-06T05:53:14.900Z,20.97
2018-12-06T05:55:43.054Z,21.05
2018-12-06T05:58:11.406Z,20.52
2018-12-06T06:00:39.713Z,21.25
2018-12-06T06:03:08.238Z,22.10
2018-12-06T06:05:36.753Z,21.27
2018-12-06T06:08:05.226Z,21.73
2018-12-06T06:10:33.459Z,22.95
2018-12-06T06:13:01.786Z,20.35
2018-12-06T06:15:30.110Z,22.05
2018-12-06T06:17:58.346Z,21.75
2018-12-06T06:20:26.777Z,22.13
2018-12-06T06:22:55.098Z,21.42
2018-12-06T06:25:23.478Z,21.05
2018-12-06T06:27:51.863Z,21.45
2018-12-06T06:30:20.187Z,21.42
2018-12-06T06:32:48.543Z,21.52
2018-12-06T06:35:16.855Z,21.25
2018-12-06T06:37:45.014Z,20.00
2018-12-06T06:40:13.522Z,24.40
2018-12-06T06:42:41.873Z,21.82
2018-12-06T06:45:10.148Z,21.10
2018-12-06T06:47:38.547Z,20.85
2018-12-06T06:50:06.896Z,21.60
2018-12-06T06:52:35.168Z,20.92
2018-12-06T06:55:03.629Z,20.15
2018-12-06T06:57:31.922Z,21.55
2018-12-06T07:00:00.323Z,20.43
2018-12-06T07:02:28.680Z,21.62
2018-12-06T07:04:57.014Z,21.40
2018-12-06T07:07:25.223Z,21.87
2018-12-06T07:09:53.623Z,19.90
2018-12-06T07:12:21.826Z,20.95
2018-12-06T07:14:52.194Z,20.57
2018-12-06T07:17:22.593Z,21.23
2018-12-06T07:19:50.890Z,20.10
2018-12-06T07:22:19.689Z,22.67
2018-12-06T07:24:48.843Z,21.73
2018-12-06T07:27:17.707Z,22.45
2018-12-06T07:29:46.052Z,22.30
2018-12-06T07:32:17.800Z,22.90
2018-12-06T07:34:46.936Z,21.27
2018-12-06T07:37:15.512Z,21.85
2018-12-06T07:39:43.865Z,21.65
2018-12-06T07:42:12.989Z,21.82
2018-12-06T07:44:41.347Z,22.15
2018-12-06T07:47:10.356Z,20.77
2018-12-06T07:49:39.595Z,21.25
2018-12-06T07:52:08.743Z,21.60
2018-12-06T07:54:37.090Z,20.90
2018-12-06T07:57:06.182Z,22.90
2018-12-06T07:59:35.158Z,22.27
2018-12-06T08:02:03.483Z,21.62
2018-12-06T08:04:31.833Z,22.95
2018-12-06T08:07:00.098Z,21.60
2018-12-06T08:09:28.443Z,21.87
2018-12-06T08:11:56.800Z,20.40
2018-12-06T08:14:25.195Z,21.25
2018-12-06T08:16:54.857Z,21.48
2018-12-06T08:19:23.174Z,23.87
2018-12-06T08:21:59.222Z,21.68
2018-12-06T08:24:27.569Z,22.37
2018-12-06T08:26:56.388Z,22.87
2018-12-06T08:29:29.193Z,22.02
2018-12-06T08:31:58.074Z,22.05
2018-12-06T08:34:26.484Z,22.93
2018-12-06T08:36:54.819Z,22.27
2018-12-06T08:39:24.252Z,23.18
2018-12-06T08:41:56.859Z,21.95
2018-12-06T08:44:25.231Z,22.13
2018-12-06T08:46:54.827Z,22.02
2018-12-06T08:49:24.107Z,22.27
2018-12-06T08:51:52.414Z,23.12
2018-12-06T08:54:20.842Z,21.75
2018-12-06T08:56:49.038Z,22.80
2018-12-06T08:59:17.367Z,23.55
2018-12-06T09:01:45.619Z,22.75
2018-12-06T09:04:15.460Z,22.95
2018-12-06T09:06:43.759Z,22.93
2018-12-06T09:09:17.050Z,23.77
2018-12-06T09:11:46.334Z,23.40
2018-12-06T09:14:19.633Z,23.70
2018-12-06T09:16:48.152Z,23.15
2018-12-06T09:19:20.721Z,21.75
2018-12-06T09:21:49.064Z,23.80
2018-12-06T09:24:23.355Z,21.48
2018-12-06T09:26:58.466Z,22.37
2018-12-06T09:29:22.134Z,24.50
2018-12-06T09:31:50.620Z,22.15
2018-12-06T09:34:23.793Z,23.00
2018-12-06T09:36:52.119Z,23.20
2018-12-06T09:39:25.044Z,25.80
2018-12-06T09:41:55.167Z,25.32
2018-12-06T09:44:29.622Z,22.73
2018-12-06T09:47:00.294Z,21.20
2018-12-06T09:49:32.931Z,22.10
2018-12-06T09:52:01.668Z,22.20
2018-12-06T09:54:30.004Z,22.85
2018-12-06T09:57:00.039Z,23.98
2018-12-06T09:59:28.396Z,22.27
2018-12-06T10:01:57.430Z,22.90
2018-12-06T10:04:30.279Z,22.22
2018-12-06T10:06:58.558Z,23.85
2018-12-06T10:09:27.036Z,23.98
2018-12-06T10:11:55.347Z,22.45
2018-12-06T10:14:23.579Z,23.02
2018-12-06T10:16:51.982Z,23.27
2018-12-06T10:19:20.239Z,22.27
2018-12-06T10:21:48.750Z,23.70
2018-12-06T10:24:22.150Z,23.67
2018-12-06T10:26:52.131Z,22.35
2018-12-06T10:29:20.486Z,25.50
2018-12-06T10:31:49.983Z,23.27
2018-12-06T10:34:18.587Z,23.15
2018-12-06T10:36:46.954Z,22.80
2018-12-06T10:39:15.315Z,22.35
2018-12-06T10:41:43.998Z,22.70
2018-12-06T10:44:22.667Z,22.90
2018-12-06T10:46:51.970Z,22.20
2018-12-06T10:49:20.998Z,22.77
2018-12-06T10:51:49.342Z,23.45
2018-12-06T10:54:17.669Z,23.80
2018-12-06T10:56:45.880Z,23.45
2018-12-06T10:59:16.638Z,23.20
2018-12-06T11:01:49.654Z,23.45
2018-12-06T11:04:18.136Z,23.77
2018-12-06T11:06:46.411Z,23.77
2018-12-06T11:09:15.009Z,23.62
2018-12-06T11:11:43.356Z,24.25
2018-12-06T11:14:11.639Z,23.40
2018-12-06T11:16:40.005Z,24.18
2018-12-06T11:19:13.256Z,22.62
2018-12-06T11:21:43.238Z,22.85
2018-12-06T11:24:11.582Z,24.77
2018-12-06T11:26:43.845Z,24.00
2018-12-06T11:29:12.251Z,23.25
2018-12-06T11:31:42.102Z,23.12
2018-12-06T11:34:10.324Z,23.55
2018-12-06T11:36:39.358Z,24.05
2018-12-06T11:39:09.030Z,24.80
2018-12-06T11:41:42.997Z,28.90
2018-12-06T11:44:07.926Z,23.50
2018-12-06T11:46:40.677Z,25.48
2018-12-06T11:49:09.007Z,25.80
2018-12-06T11:51:37.838Z,24.40
2018-12-06T11:54:06.340Z,23.35
2018-12-06T11:56:34.730Z,23.20
2018-12-06T11:59:04.360Z,24.57
2018-12-06T12:01:32.819Z,23.73
2018-12-06T12:04:01.137Z,24.32
2018-12-06T12:06:30.234Z,22.98
2018-12-06T12:08:58.569Z,24.77
2018-12-06T12:11:26.856Z,24.45
2018-12-06T12:13:55.111Z,24.90
2018-12-06T12:16:23.600Z,23.60
2018-12-06T12:18:52.487Z,25.10
2018-12-06T12:21:20.814Z,25.48
2018-12-06T12:23:49.476Z,23.98
2018-12-06T12:26:17.835Z,23.80
2018-12-06T12:28:49.846Z,23.62
2018-12-06T12:31:18.061Z,25.60
2018-12-06T12:33:47.073Z,24.25
2018-12-06T12:36:15.575Z,23.77
2018-12-06T12:38:43.834Z,22.73
2018-12-06T12:41:12.224Z,25.02
2018-12-06T12:43:40.561Z,24.72
2018-12-06T12:46:13.561Z,25.08
2018-12-06T12:48:41.738Z,24.18
2018-12-06T12:51:10.874Z,27.48
2018-12-06T12:53:39.916Z,23.80
2018-12-06T12:56:09.859Z,23.80
2018-12-06T12:58:38.198Z,25.80
2018-12-06T13:01:07.263Z,23.12
2018-12-06T13:03:35.551Z,23.33
2018-12-06T13:06:04.378Z,24.70
2018-12-06T13:08:32.653Z,24.00
2018-12-06T13:11:01.455Z,23.98
2018-12-06T13:13:30.608Z,24.40
2018-12-06T13:16:01.656Z,24.43
2018-12-06T13:18:29.917Z,23.75
2018-12-06T13:20:58.743Z,23.73
2018-12-06T13:23:27.168Z,28.12
2018-12-06T13:25:56.072Z,26.30
2018-12-06T13:28:24.338Z,24.95
2018-12-06T13:30:52.717Z,24.12
2018-12-06T13:33:21.038Z,25.25
2018-12-06T13:35:51.147Z,24.20
2018-12-06T13:38:19.563Z,24.75
2018-12-06T13:40:47.934Z,27.45
2018-12-06T13:43:17.602Z,25.05
2018-12-06T13:45:45.962Z,24.47
2018-12-06T13:48:15.851Z,24.83
2018-12-06T13:50:44.218Z,26.02
2018-12-06T13:53:12.642Z,26.95
2018-12-06T13:55:40.891Z,24.95
2018-12-06T13:58:09.352Z,26.37
2018-12-06T14:00:37.937Z,24.07
2018-12-06T14:03:06.576Z,23.45
2018-12-06T14:05:39.176Z,23.20
2018-12-06T14:08:07.639Z,24.82
2018-12-06T14:10:35.984Z,23.87
2018-12-06T14:13:04.376Z,23.27
2018-12-06T14:15:32.718Z,23.52
2018-12-06T14:18:01.347Z,22.95
2018-12-06T14:20:29.677Z,24.65
2018-12-06T14:23:01.885Z,24.32
2018-12-06T14:25:30.185Z,22.87
2018-12-06T14:27:58.439Z,22.40
2018-12-06T14:30:26.681Z,24.02
2018-12-06T14:32:54.978Z,21.87
2018-12-06T14:35:25.024Z,22.87
2018-12-06T14:37:53.512Z,22.85
2018-12-06T14:40:21.811Z,21.80
2018-12-06T14:42:50.122Z,20.45
2018-12-06T14:45:18.866Z,19.75
2018-12-06T14:47:47.469Z,19.23
2018-12-06T14:50:16.016Z,21.17
2018-12-06T14:52:44.627Z,22.00
2018-12-06T14:55:15.477Z,22.62
2018-12-06T14:57:43.880Z,22.65
2018-12-06T15:00:12.358Z,20.80
2018-12-06T15:02:40.842Z,21.75
2018-12-06T15:05:10.375Z,21.15
2018-12-06T15:07:38.688Z,23.77
2018-12-06T15:10:07.882Z,19.15
2018-12-06T15:12:36.222Z,21.33
2018-12-06T15:15:04.861Z,19.87
2018-12-06T15:17:33.414Z,20.52
2018-12-06T15:20:01.863Z,19.80
2018-12-06T15:22:30.168Z,21.30
2018-12-06T15:24:58.869Z,21.42
2018-12-06T15:27:27.430Z,22.62
2018-12-06T15:29:55.872Z,19.80
2018-12-06T15:32:24.188Z,21.95
2018-12-06T15:34:52.555Z,19.70
2018-12-06T15:37:20.903Z,21.75
2018-12-06T15:39:49.232Z,22.73
2018-12-06T15:42:17.587Z,20.00
2018-12-06T15:44:45.918Z,23.35
2018-12-06T15:47:14.303Z,21.30
2018-12-06T15:49:43.576Z,20.80
2018-12-06T15:52:11.840Z,20.92
2018-12-06T15:54:40.347Z,24.02
2018-12-06T15:57:08.764Z,20.62
2018-12-06T15:59:41.478Z,19.82
2018-12-06T16:02:09.936Z,21.52
2018-12-06T16:04:38.203Z,20.68
2018-12-06T16:07:06.528Z,22.95
2018-12-06T16:09:34.778Z,20.30
2018-12-06T16:12:03.351Z,20.70
2018-12-06T16:14:31.635Z,21.05
2018-12-06T16:17:03.852Z,21.85
2018-12-06T16:19:32.142Z,21.30
2018-12-06T16:22:00.414Z,21.57
2018-12-06T16:24:28.691Z,23.42
2018-12-06T16:26:56.885Z,20.17
2018-12-06T16:29:25.106Z,23.27
2018-12-06T16:31:53.582Z,23.47
2018-12-06T16:34:21.971Z,22.10
2018-12-06T16:36:50.570Z,22.35
2018-12-06T16:39:23.359Z,22.58
2018-12-06T16:41:51.684Z,21.52
2018-12-06T16:44:20.070Z,21.75
2018-12-06T16:46:48.382Z,21.65
2018-12-06T16:49:16.927Z,21.73
2018-12-06T16:51:52.066Z,20.50
2018-12-06T16:54:49.740Z,20.50
2018-12-06T16:57:18.233Z,20.72
2018-12-06T16:59:46.691Z,20.75
2018-12-06T17:02:16.893Z,20.60
2018-12-06T17:04:45.418Z,23.30
2018-12-06T17:07:14.061Z,21.57
2018-12-06T17:09:44.284Z,21.87
2018-12-06T17:12:12.646Z,21.35
2018-12-06T17:14:40.936Z,23.12
2018-12-06T17:17:10.042Z,22.07
2018-12-06T17:19:38.561Z,22.60
2018-12-06T17:22:07.282Z,22.95
2018-12-06T17:24:35.692Z,23.15
2018-12-06T17:27:03.975Z,22.30
2018-12-06T17:29:33.495Z,21.30
2018-12-06T17:32:02.361Z,21.17
2018-12-06T17:34:30.698Z,23.98
2018-12-06T17:36:59.310Z,22.32
2018-12-06T17:39:27.651Z,21.00
2018-12-06T17:41:56.336Z,21.52
2018-12-06T17:44:24.700Z,23.87
2018-12-06T17:46:53.124Z,21.27
2018-12-06T17:49:21.489Z,21.95
2018-12-06T17:51:50.007Z,22.90
2018-12-06T17:54:18.416Z,23.10
2018-12-06T17:56:46.723Z,23.27
2018-12-06T17:59:16.131Z,22.25
2018-12-06T18:01:44.448Z,23.22
2018-12-06T18:04:12.929Z,22.40
2018-12-06T18:06:45.635Z,21.33
2018-12-06T18:09:15.093Z,20.17
2018-12-06T18:11:43.641Z,21.00
2018-12-06T18:14:12.189Z,22.40
2018-12-06T18:16:40.567Z,21.12
2018-12-06T18:19:10.399Z,20.12
2018-12-06T18:21:38.897Z,22.20
2018-12-06T18:24:07.287Z,20.35
2018-12-06T18:26:35.769Z,20.55
2018-12-06T18:29:04.164Z,22.67
2018-12-06T18:31:32.553Z,20.68
2018-12-06T18:34:01.019Z,22.20
2018-12-06T18:36:29.473Z,21.45
2018-12-06T18:38:57.996Z,23.98
2018-12-06T18:41:29.802Z,22.58
2018-12-06T18:43:58.432Z,22.60
2018-12-06T18:46:26.731Z,22.32
2018-12-06T18:48:58.495Z,21.17
2018-12-06T18:51:26.864Z,22.93
2018-12-06T18:53:55.869Z,21.52
2018-12-06T18:56:24.270Z,21.82
2018-12-06T18:58:52.678Z,21.07
2018-12-06T19:01:20.957Z,21.87
2018-12-06T19:03:50.475Z,22.37
2018-12-06T19:06:18.803Z,22.13
2018-12-06T19:08:47.966Z,23.50
2018-12-06T19:11:16.192Z,20.55
2018-12-06T19:13:45.085Z,21.55
2018-12-06T19:16:14.519Z,23.45
2018-12-06T19:18:42.936Z,20.95
2018-12-06T19:21:11.194Z,21.85
2018-12-06T19:23:39.911Z,21.23
2018-12-06T19:26:10.515Z,24.35
2018-12-06T19:28:38.331Z,24.15
2018-12-06T19:31:06.678Z,22.05
2018-12-06T19:33:35.153Z,22.45
2018-12-06T19:36:05.817Z,21.80
2018-12-06T19:38:34.334Z,22.22
2018-12-06T19:41:03.240Z,24.63
2018-12-06T19:43:32.486Z,24.12
2018-12-06T19:46:01.152Z,21.95
2018-12-06T19:48:29.460Z,23.90
2018-12-06T19:50:57.733Z,22.20
2018-12-06T19:53:26.207Z,21.87
2018-12-06T19:55:56.080Z,19.80
2018-12-06T19:58:24.699Z,21.85
2018-12-06T20:00:53.086Z,23.52
2018-12-06T20:03:21.585Z,22.98
2018-12-06T20:05:50.048Z,21.35
2018-12-06T20:08:18.448Z,22.90
2018-12-06T20:10:46.939Z,22.32
2018-12-06T20:13:15.389Z,24.02
2018-12-06T20:15:44.399Z,23.55
2018-12-06T20:18:13.187Z,22.27
2018-12-06T20:20:41.654Z,22.70
2018-12-06T20:23:09.906Z,22.58
2018-12-06T20:25:38.338Z,23.55
2018-12-06T20:28:06.639Z,22.73
2018-12-06T20:30:34.951Z,23.70
2018-12-06T20:35:47.583Z,24.02
2018-12-06T20:38:16.178Z,21.12
2018-12-06T20:40:44.574Z,22.67
2018-12-06T20:43:13.088Z,23.38
2018-12-06T20:45:41.795Z,21.70
2018-12-06T20:48:10.151Z,23.30
2018-12-06T20:50:38.467Z,23.98
2018-12-06T20:53:06.753Z,22.07
2018-12-06T20:55:35.152Z,22.32
2018-12-06T20:58:04.393Z,22.58
2018-12-06T21:00:32.670Z,23.80
2018-12-06T21:03:01.059Z,21.65
2018-12-06T21:05:29.435Z,23.07
2018-12-06T21:07:57.760Z,23.73
2018-12-06T21:10:26.195Z,20.92
2018-12-06T21:12:54.639Z,23.92
2018-12-06T21:15:23.014Z,18.87
2018-12-06T21:17:51.369Z,21.33
2018-12-06T21:20:19.823Z,22.50
2018-12-06T21:22:48.029Z,21.97
2018-12-06T21:25:16.443Z,21.62
2018-12-06T21:27:44.746Z,21.57
2018-12-06T21:30:13.350Z,20.32
2018-12-06T21:32:41.827Z,21.95
2018-12-06T21:35:10.213Z,23.52
2018-12-06T21:37:38.415Z,24.27
2018-12-06T21:40:07.432Z,22.15
2018-12-06T21:42:36.032Z,22.45
2018-12-06T21:45:04.826Z,24.10
2018-12-06T21:47:33.417Z,20.95
2018-12-06T21:50:01.907Z,21.45
2018-12-06T21:52:30.565Z,22.17
2018-12-06T21:54:59.657Z,22.73
2018-12-06T21:57:28.274Z,21.75
2018-12-06T21:59:56.689Z,22.70
2018-12-06T22:02:26.859Z,20.23
2018-12-06T22:04:55.164Z,21.02
2018-12-06T22:07:23.400Z,21.35
2018-12-06T22:09:51.655Z,23.62
2018-12-06T22:12:20.156Z,19.52
2018-12-06T22:14:48.955Z,21.77
2018-12-06T22:17:17.644Z,22.50
2018-12-06T22:19:46.538Z,22.42
2018-12-06T22:22:14.920Z,21.20
2018-12-06T22:24:43.235Z,24.75
2018-12-06T22:27:11.630Z,24.12
2018-12-06T22:29:40.006Z,22.10
2018-12-06T22:32:08.328Z,19.70
2018-12-06T22:34:36.661Z,21.57
2018-12-06T22:37:05.181Z,22.25
2018-12-06T22:39:33.464Z,21.70
2018-12-06T22:42:01.825Z,20.55
2018-12-06T22:44:30.096Z,22.95
2018-12-06T22:46:58.396Z,21.90
2018-12-06T22:49:26.671Z,23.30
2018-12-06T22:51:54.955Z,22.52
2018-12-06T22:54:23.374Z,21.87
2018-12-06T22:56:51.718Z,20.48
2018-12-06T22:59:20.161Z,19.40
2018-12-06T23:01:49.867Z,19.85
2018-12-06T23:04:18.437Z,20.90
2018-12-06T23:06:46.720Z,22.30
2018-12-06T23:09:15.056Z,22.20
2018-12-06T23:11:43.319Z,21.42
2018-12-06T23:14:11.643Z,21.42
2018-12-06T23:16:39.885Z,22.73
2018-12-06T23:19:08.196Z,21.57
2018-12-06T23:21:36.629Z,20.68
2018-12-06T23:24:04.911Z,23.00
2018-12-06T23:26:34.626Z,18.60
2018-12-06T23:29:02.929Z,20.40
2018-12-06T23:31:31.571Z,20.32
2018-12-06T23:34:00.149Z,20.70
2018-12-06T23:36:28.633Z,20.47
2018-12-06T23:38:56.903Z,21.93
2018-12-06T23:41:25.435Z,22.45
2018-12-06T23:43:53.722Z,21.00
2018-12-06T23:46:22.255Z,19.30
2018-12-06T23:48:50.490Z,20.57
2018-12-06T23:51:30.296Z,21.10
2018-12-06T23:53:58.630Z,20.72
2018-12-06T23:56:27.041Z,20.97
2018-12-06T23:58:55.880Z,20.80
